createdAt,value
2019-06-07T00:02:01.946Z,100.00
2019-06-07T00:05:07.665Z,100.00
2019-06-07T00:08:22.548Z,100.00
2019-06-07T00:11:21.485Z,100.00
2019-06-07T00:14:28.245Z,100.00
2019-06-07T00:17:33.431Z,100.00
2019-06-07T00:20:38.655Z,100.00
2019-06-07T00:23:43.875Z,100.00
2019-06-07T00:26:58.323Z,100.00
2019-06-07T00:29:55.939Z,100.00
2019-06-07T00:33:01.147Z,100.00
2019-06-07T00:36:06.736Z,100.00
2019-06-07T00:39:14.463Z,100.00
2019-06-07T00:42:21.047Z,100.00
2019-06-07T00:45:25.691Z,100.00
2019-06-07T00:48:32.901Z,100.00
2019-06-07T00:51:50.108Z,100.00
2019-06-07T00:54:45.714Z,100.00
2019-06-07T00:57:50.916Z,100.00
2019-06-07T01:00:56.053Z,100.00
2019-06-07T01:04:01.236Z,99.33
2019-06-07T01:07:06.406Z,98.97
2019-06-07T01:10:13.907Z,98.92
2019-06-07T01:13:23.791Z,99.34
2019-06-07T01:16:26.675Z,98.19
2019-06-07T01:19:31.819Z,99.28
2019-06-07T01:22:36.883Z,99.24
2019-06-07T01:25:42.111Z,99.19
2019-06-07T01:28:47.389Z,99.51
2019-06-07T01:31:52.519Z,100.00
2019-06-07T01:34:57.656Z,100.00
2019-06-07T01:38:02.876Z,100.00
2019-06-07T01:41:08.043Z,100.00
2019-06-07T01:44:13.225Z,100.00
2019-06-07T01:47:21.113Z,100.00
2019-06-07T01:50:27.127Z,100.00
2019-06-07T01:53:32.226Z,100.00
2019-06-07T01:56:37.432Z,100.00
2019-06-07T01:59:42.718Z,100.00
2019-06-07T02:02:47.818Z,100.00
2019-06-07T02:05:53.034Z,100.00
2019-06-07T02:08:58.200Z,100.00
2019-06-07T02:12:24.652Z,100.00
2019-06-07T02:15:11.894Z,100.00
2019-06-07T02:18:17.078Z,100.00
2019-06-07T02:21:24.663Z,100.00
2019-06-07T02:24:32.391Z,100.00
2019-06-07T02:27:35.981Z,100.00
2019-06-07T02:30:51.035Z,100.00
2019-06-07T02:33:48.093Z,100.00
2019-06-07T02:36:53.259Z,100.00
2019-06-07T02:39:58.458Z,100.00
2019-06-07T02:43:03.641Z,100.00
2019-06-07T02:46:31.904Z,100.00
2019-06-07T02:49:36.273Z,100.00
2019-06-07T02:52:40.712Z,100.00
2019-06-07T02:56:33.822Z,100.00
2019-06-07T02:58:50.877Z,100.00
2019-06-07T03:01:56.300Z,100.00
2019-06-07T03:05:01.459Z,100.00
2019-06-07T03:08:08.293Z,100.00
2019-06-07T03:11:15.758Z,100.00
2019-06-07T03:14:22.429Z,100.00
2019-06-07T03:17:49.171Z,100.00
2019-06-07T03:21:04.907Z,100.00
2019-06-07T03:24:03.266Z,100.00
2019-06-07T03:27:35.057Z,100.00
2019-06-07T03:30:38.369Z,100.00
2019-06-07T03:33:22.748Z,100.00
2019-06-07T03:36:27.876Z,100.00
2019-06-07T03:39:33.761Z,100.00
2019-06-07T03:42:40.272Z,100.00
2019-06-07T03:45:45.373Z,100.00
2019-06-07T03:48:50.599Z,100.00
2019-06-07T03:51:55.758Z,100.00
2019-06-07T03:55:01.025Z,100.00
2019-06-07T04:01:13.306Z,100.00
2019-06-07T04:04:19.623Z,100.00
2019-06-07T04:07:24.759Z,100.00
2019-06-07T04:10:52.034Z,100.00
2019-06-07T04:13:39.841Z,99.09
2019-06-07T04:16:44.930Z,99.55
2019-06-07T04:19:50.297Z,99.97
2019-06-07T04:22:55.439Z,99.80
2019-06-07T04:26:00.641Z,100.00
2019-06-07T04:29:32.195Z,99.76
2019-06-07T04:32:12.664Z,100.00
2019-06-07T04:35:17.816Z,100.00
2019-06-07T04:38:23.583Z,100.00
2019-06-07T04:41:31.035Z,100.00
2019-06-07T04:44:41.081Z,100.00
2019-06-07T04:47:46.533Z,100.00
2019-06-07T04:50:53.208Z,100.00
2019-06-07T04:53:58.413Z,100.00
2019-06-07T04:57:03.558Z,100.00
2019-06-07T05:00:46.217Z,100.00
2019-06-07T05:03:15.877Z,99.63
2019-06-07T05:06:21.044Z,98.50
2019-06-07T05:09:26.219Z,98.34
2019-06-07T05:12:32.691Z,98.34
2019-06-07T05:15:41.707Z,97.92
2019-06-07T05:18:45.594Z,98.34
2019-06-07T05:22:03.634Z,97.79
2019-06-07T05:24:57.752Z,98.28
2019-06-07T05:28:02.862Z,98.39
2019-06-07T05:31:08.999Z,97.32
2019-06-07T05:34:14.132Z,97.24
2019-06-07T05:37:19.334Z,96.19
2019-06-07T05:40:37.312Z,95.49
2019-06-07T05:44:27.093Z,96.61
2019-06-07T05:47:32.234Z,95.91
2019-06-07T05:50:44.919Z,95.29
2019-06-07T05:53:45.975Z,94.20
2019-06-07T05:56:51.053Z,92.70
2019-06-07T05:59:56.147Z,91.83
2019-06-07T06:03:05.679Z,91.05
2019-06-07T06:06:08.156Z,90.04
2019-06-07T06:09:14.311Z,90.61
2019-06-07T06:12:34.237Z,88.89
2019-06-07T06:15:41.454Z,88.09
2019-06-07T06:18:33.568Z,86.88
2019-06-07T06:21:38.709Z,86.22
2019-06-07T06:25:17.315Z,84.50
2019-06-07T06:28:12.303Z,84.07
2019-06-07T06:30:57.737Z,82.98
2019-06-07T06:34:02.959Z,81.48
2019-06-07T06:37:08.137Z,82.09
2019-06-07T06:40:13.970Z,79.35
2019-06-07T06:43:19.195Z,78.48
2019-06-07T06:46:38.115Z,77.29
2019-06-07T06:49:31.248Z,78.01
2019-06-07T06:52:36.424Z,76.30
2019-06-07T06:55:41.590Z,75.22
2019-06-07T06:59:27.363Z,76.05
2019-06-07T07:01:53.655Z,75.25
2019-06-07T07:04:58.823Z,73.56
2019-06-07T07:08:04.177Z,71.92
2019-06-07T07:11:09.429Z,72.09
2019-06-07T07:14:14.739Z,72.65
2019-06-07T07:17:19.913Z,73.75
2019-06-07T07:20:25.592Z,76.04
2019-06-07T07:23:30.946Z,74.52
2019-06-07T07:26:36.065Z,74.61
2019-06-07T07:29:43.698Z,76.64
2019-06-07T07:32:48.953Z,75.30
2019-06-07T07:36:18.493Z,75.62
2019-06-07T07:39:05.275Z,75.29
2019-06-07T07:42:20.713Z,75.74
2019-06-07T07:45:15.830Z,75.91
2019-06-07T07:48:20.990Z,75.09
2019-06-07T07:51:26.165Z,75.71
2019-06-07T07:54:32.404Z,76.51
2019-06-07T07:57:37.610Z,75.22
2019-06-07T08:00:53.864Z,75.09
2019-06-07T08:03:50.682Z,74.74
2019-06-07T08:06:56.524Z,71.96
2019-06-07T08:10:04.142Z,70.35
2019-06-07T08:13:24.691Z,69.46
2019-06-07T08:16:18.723Z,68.36
2019-06-07T08:19:28.287Z,68.15
2019-06-07T08:22:33.479Z,69.37
2019-06-07T08:25:38.588Z,70.12
2019-06-07T08:28:43.951Z,66.99
2019-06-07T08:31:51.604Z,68.44
2019-06-07T08:35:02.202Z,65.52
2019-06-07T08:41:12.638Z,68.07
2019-06-07T08:44:23.899Z,68.56
2019-06-07T08:47:24.989Z,66.13
2019-06-07T08:50:30.391Z,65.25
2019-06-07T08:53:35.575Z,65.25
2019-06-07T08:56:41.930Z,66.02
2019-06-07T08:59:47.104Z,66.31
2019-06-07T09:02:53.184Z,66.33
2019-06-07T09:06:06.061Z,66.31
2019-06-07T09:09:07.963Z,65.92
2019-06-07T09:12:13.162Z,62.31
2019-06-07T09:15:23.509Z,60.93
2019-06-07T09:18:44.228Z,63.76
2019-06-07T09:21:32.718Z,63.32
2019-06-07T09:24:37.864Z,63.32
2019-06-07T09:27:43.102Z,61.01
2019-06-07T09:30:48.389Z,63.20
2019-06-07T09:33:53.653Z,64.09
2019-06-07T09:37:04.280Z,63.92
2019-06-07T09:40:21.629Z,64.23
2019-06-07T09:46:20.893Z,62.69
2019-06-07T09:49:32.645Z,61.58
2019-06-07T09:52:56.563Z,59.59
2019-06-07T09:55:40.086Z,59.74
2019-06-07T09:58:51.826Z,59.56
2019-06-07T10:01:52.516Z,59.28
2019-06-07T10:04:58.859Z,59.71
2019-06-07T10:08:40.301Z,58.38
2019-06-07T10:11:11.893Z,57.34
2019-06-07T10:14:17.115Z,57.55
2019-06-07T10:17:22.386Z,56.52
2019-06-07T10:20:27.610Z,56.47
2019-06-07T10:23:32.900Z,54.57
2019-06-07T10:26:38.206Z,55.00
2019-06-07T10:29:43.363Z,54.19
2019-06-07T10:32:52.022Z,55.04
2019-06-07T10:35:55.597Z,53.67
2019-06-07T10:39:00.867Z,55.49
2019-06-07T10:42:09.536Z,56.52
2019-06-07T10:45:14.844Z,57.93
2019-06-07T10:51:23.855Z,57.51
2019-06-07T10:54:30.813Z,58.56
2019-06-07T10:57:36.233Z,58.49
2019-06-07T11:00:41.594Z,58.61
2019-06-07T11:03:46.803Z,56.97
2019-06-07T11:06:51.975Z,57.25
2019-06-07T11:10:07.132Z,55.54
2019-06-07T11:13:04.218Z,55.22
2019-06-07T11:16:11.048Z,55.25
2019-06-07T11:19:18.497Z,54.76
2019-06-07T11:22:23.488Z,55.24
2019-06-07T11:25:28.645Z,54.59
2019-06-07T11:28:33.987Z,55.07
2019-06-07T11:31:39.211Z,55.47
2019-06-07T11:34:44.394Z,56.09
2019-06-07T11:37:49.638Z,54.56
2019-06-07T11:40:54.819Z,54.46
2019-06-07T11:43:59.967Z,54.03
2019-06-07T11:47:06.381Z,56.50
2019-06-07T11:50:11.992Z,54.54
2019-06-07T11:53:17.258Z,55.58
2019-06-07T11:56:22.615Z,55.51
2019-06-07T11:59:27.932Z,53.29
2019-06-07T12:02:33.113Z,53.71
2019-06-07T12:05:38.296Z,53.88
2019-06-07T12:08:43.527Z,53.69
2019-06-07T12:11:48.682Z,54.13
2019-06-07T12:14:54.022Z,53.76
2019-06-07T12:17:59.245Z,52.69
2019-06-07T12:21:04.538Z,51.80
2019-06-07T12:24:10.351Z,50.73
2019-06-07T12:27:16.715Z,51.32
2019-06-07T12:30:27.230Z,50.94
2019-06-07T12:33:28.994Z,51.01
2019-06-07T12:36:34.352Z,50.02
2019-06-07T12:39:39.516Z,50.76
2019-06-07T12:42:44.711Z,50.79
2019-06-07T12:45:51.240Z,50.51
2019-06-07T12:48:56.604Z,50.65
2019-06-07T12:52:01.855Z,50.05
2019-06-07T12:55:07.239Z,50.62
2019-06-07T12:58:13.729Z,48.99
2019-06-07T13:01:20.846Z,49.21
2019-06-07T13:04:27.663Z,49.26
2019-06-07T13:07:33.055Z,50.59
2019-06-07T13:10:38.204Z,50.83
2019-06-07T13:13:43.408Z,49.25
2019-06-07T13:16:48.652Z,49.64
2019-06-07T13:19:53.962Z,48.69
2019-06-07T13:22:59.333Z,48.95
2019-06-07T13:26:04.767Z,47.42
2019-06-07T13:29:09.957Z,47.93
2019-06-07T13:32:15.636Z,48.48
2019-06-07T13:35:23.320Z,47.76
2019-06-07T13:38:29.147Z,47.35
2019-06-07T13:41:42.631Z,48.02
2019-06-07T13:44:41.497Z,47.69
2019-06-07T13:47:46.841Z,47.36
2019-06-07T13:50:52.054Z,45.50
2019-06-07T13:53:57.368Z,45.74
2019-06-07T13:57:03.300Z,46.07
2019-06-07T14:00:11.246Z,46.84
2019-06-07T14:03:20.314Z,47.01
2019-06-07T14:06:25.225Z,46.78
2019-06-07T14:09:30.824Z,45.55
2019-06-07T14:12:36.172Z,46.71
2019-06-07T14:15:41.349Z,46.35
2019-06-07T14:18:46.612Z,45.63
2019-06-07T14:21:51.850Z,45.37
2019-06-07T14:24:57.046Z,44.69
2019-06-07T14:28:02.201Z,45.12
2019-06-07T14:31:07.579Z,45.73
2019-06-07T14:34:12.919Z,44.56
2019-06-07T14:37:18.503Z,44.82
2019-06-07T14:40:25.317Z,44.40
2019-06-07T14:43:31.768Z,44.62
2019-06-07T14:46:37.317Z,45.47
2019-06-07T14:49:42.673Z,45.16
2019-06-07T14:52:47.991Z,45.08
2019-06-07T14:55:53.193Z,44.19
2019-06-07T14:58:58.590Z,43.79
2019-06-07T15:02:03.779Z,42.90
2019-06-07T15:05:09.428Z,43.51
2019-06-07T15:08:14.772Z,44.07
2019-06-07T15:11:20.027Z,43.96
2019-06-07T15:14:25.301Z,42.97
2019-06-07T15:17:31.286Z,42.97
2019-06-07T15:20:38.362Z,42.26
2019-06-07T15:23:43.855Z,41.67
2019-06-07T15:26:49.200Z,41.73
2019-06-07T15:29:54.534Z,41.50
2019-06-07T15:33:00.087Z,42.61
2019-06-07T15:36:07.007Z,42.40
2019-06-07T15:39:12.407Z,42.05
2019-06-07T15:42:17.642Z,42.10
2019-06-07T15:45:22.891Z,41.73
2019-06-07T15:48:28.149Z,41.08
2019-06-07T15:51:34.474Z,41.35
2019-06-07T15:54:40.702Z,41.39
2019-06-07T15:57:46.088Z,41.23
2019-06-07T16:00:51.394Z,41.92
2019-06-07T16:03:56.577Z,41.38
2019-06-07T16:07:01.854Z,41.33
2019-06-07T16:10:07.958Z,40.38
2019-06-07T16:13:13.154Z,39.56
2019-06-07T16:16:18.623Z,39.75
2019-06-07T16:19:23.789Z,40.14
2019-06-07T16:22:28.932Z,40.92
2019-06-07T16:25:34.176Z,42.09
2019-06-07T16:28:40.444Z,40.79
2019-06-07T16:31:45.867Z,40.13
2019-06-07T16:34:51.160Z,38.10
2019-06-07T16:37:56.419Z,38.34
2019-06-07T16:41:01.667Z,38.93
2019-06-07T16:44:06.991Z,39.83
2019-06-07T16:47:12.327Z,41.87
2019-06-07T16:50:18.000Z,42.18
2019-06-07T16:53:23.310Z,41.83
2019-06-07T16:56:28.475Z,42.65
2019-06-07T16:59:33.801Z,43.12
2019-06-07T17:02:40.171Z,47.95
2019-06-07T17:05:48.893Z,50.79
2019-06-07T17:08:52.418Z,49.59
2019-06-07T17:11:57.645Z,50.11
2019-06-07T17:15:03.075Z,53.17
2019-06-07T17:18:08.570Z,52.86
2019-06-07T17:21:14.312Z,53.78
2019-06-07T17:24:20.120Z,55.09
2019-06-07T17:27:25.354Z,56.52
2019-06-07T17:30:30.512Z,55.88
2019-06-07T17:33:35.874Z,53.32
2019-06-07T17:36:42.316Z,56.95
2019-06-07T17:39:48.711Z,53.34
2019-06-07T17:42:55.170Z,57.60
2019-06-07T17:46:00.471Z,55.89
2019-06-07T17:49:05.904Z,62.79
2019-06-07T17:52:11.288Z,61.99
2019-06-07T17:55:16.861Z,68.08
2019-06-07T17:58:22.203Z,69.59
2019-06-07T18:01:40.745Z,68.65
2019-06-07T18:04:34.958Z,62.81
2019-06-07T18:07:40.394Z,57.28
2019-06-07T18:10:46.156Z,55.19
2019-06-07T18:14:09.636Z,51.63
2019-06-07T18:16:59.420Z,50.72
2019-06-07T18:20:05.669Z,50.59
2019-06-07T18:23:12.600Z,52.38
2019-06-07T18:26:17.898Z,54.93
2019-06-07T18:29:23.072Z,56.61
2019-06-07T18:32:28.297Z,56.40
2019-06-07T18:35:33.629Z,57.23
2019-06-07T18:38:40.718Z,57.00
2019-06-07T18:41:47.007Z,58.56
2019-06-07T18:44:53.128Z,58.56
2019-06-07T18:47:58.494Z,58.41
2019-06-07T18:51:03.762Z,56.92
2019-06-07T18:54:09.037Z,56.24
2019-06-07T18:57:14.280Z,55.98
2019-06-07T19:00:20.425Z,55.47
2019-06-07T19:03:25.813Z,53.95
2019-06-07T19:06:31.211Z,54.09
2019-06-07T19:09:36.682Z,55.71
2019-06-07T19:12:42.120Z,57.84
2019-06-07T19:15:47.498Z,60.32
2019-06-07T19:18:53.712Z,63.47
2019-06-07T19:22:00.159Z,65.73
2019-06-07T19:25:07.149Z,69.18
2019-06-07T19:28:12.361Z,72.30
2019-06-07T19:31:17.529Z,72.07
2019-06-07T19:34:22.795Z,72.27
2019-06-07T19:37:28.054Z,72.04
2019-06-07T19:40:33.305Z,72.13
2019-06-07T19:43:38.611Z,71.21
2019-06-07T19:46:43.819Z,70.91
2019-06-07T19:49:49.075Z,71.67
2019-06-07T19:52:55.018Z,72.08
2019-06-07T19:56:01.461Z,74.81
2019-06-07T19:59:07.901Z,78.36
2019-06-07T20:02:13.300Z,82.45
2019-06-07T20:05:18.886Z,82.57
2019-06-07T20:08:24.219Z,83.39
2019-06-07T20:11:29.628Z,84.58
2019-06-07T20:14:34.864Z,84.80
2019-06-07T20:17:40.235Z,86.41
2019-06-07T20:20:45.635Z,89.46
2019-06-07T20:23:50.870Z,89.70
2019-06-07T20:26:56.241Z,87.92
2019-06-07T20:30:02.422Z,89.14
2019-06-07T20:33:14.645Z,89.98
2019-06-07T20:36:19.971Z,91.12
2019-06-07T20:39:25.183Z,92.89
2019-06-07T20:42:30.451Z,93.94
2019-06-07T20:45:35.759Z,94.92
2019-06-07T20:48:41.108Z,96.07
2019-06-07T20:51:46.381Z,96.24
2019-06-07T20:54:51.694Z,97.14
2019-06-07T20:57:59.098Z,95.55
2019-06-07T21:01:04.786Z,95.90
2019-06-07T21:04:10.335Z,97.02
2019-06-07T21:07:15.727Z,98.58
2019-06-07T21:10:21.130Z,97.68
2019-06-07T21:13:26.452Z,97.52
2019-06-07T21:16:31.822Z,98.87
2019-06-07T21:19:37.042Z,99.07
2019-06-07T21:22:42.376Z,97.91
2019-06-07T21:25:47.708Z,99.97
2019-06-07T21:28:53.037Z,100.00
2019-06-07T21:31:58.302Z,100.00
2019-06-07T21:35:03.905Z,99.12
2019-06-07T21:38:09.979Z,98.69
2019-06-07T21:41:15.314Z,97.81
2019-06-07T21:44:20.622Z,97.25
2019-06-07T21:47:25.958Z,98.42
2019-06-07T21:50:31.436Z,98.47
2019-06-07T21:53:36.918Z,98.83
2019-06-07T21:56:42.228Z,99.85
2019-06-07T21:59:47.526Z,99.79
2019-06-07T22:02:52.855Z,99.37
2019-06-07T22:05:58.145Z,99.32
2019-06-07T22:09:04.001Z,98.67
2019-06-07T22:12:10.134Z,99.47
2019-06-07T22:15:32.100Z,100.00
2019-06-07T22:18:23.853Z,100.00
2019-06-07T22:21:29.208Z,100.00
2019-06-07T22:24:34.603Z,100.00
2019-06-07T22:27:40.917Z,100.00
2019-06-07T22:30:46.270Z,100.00
2019-06-07T22:33:51.628Z,100.00
2019-06-07T22:36:56.900Z,100.00
2019-06-07T22:40:02.234Z,100.00
2019-06-07T22:43:07.675Z,100.00
2019-06-07T22:46:13.106Z,100.00
2019-06-07T22:49:19.617Z,100.00
2019-06-07T22:52:24.937Z,100.00
2019-06-07T22:55:30.243Z,100.00
2019-06-07T22:58:35.546Z,100.00
2019-06-07T23:01:40.923Z,100.00
2019-06-07T23:04:46.265Z,100.00
2019-06-07T23:07:51.644Z,100.00
2019-06-07T23:10:56.870Z,100.00
2019-06-07T23:14:02.170Z,100.00
2019-06-07T23:17:07.468Z,99.88
2019-06-07T23:20:13.712Z,99.90
2019-06-07T23:23:20.019Z,98.37
2019-06-07T23:26:25.418Z,98.40
2019-06-07T23:29:30.778Z,100.00
2019-06-07T23:32:36.031Z,100.00
2019-06-07T23:35:41.323Z,100.00
2019-06-07T23:38:46.570Z,100.00
2019-06-07T23:41:51.835Z,100.00
2019-06-07T23:44:57.130Z,99.39
2019-06-07T23:48:02.436Z,99.09
2019-06-07T23:51:07.739Z,98.99
2019-06-07T23:54:13.754Z,99.08
2019-06-07T23:57:20.839Z,99.82
